createdAt,value
2019-02-16T00:01:08.438Z,3.39
2019-02-16T00:03:37.639Z,3.27
2019-02-16T00:06:06.923Z,3.28
2019-02-16T00:08:36.637Z,3.44
2019-02-16T00:11:08.277Z,3.29
2019-02-16T00:13:38.387Z,3.30
2019-02-16T00:16:08.345Z,3.25
2019-02-16T00:18:38.537Z,3.12
2019-02-16T00:21:07.752Z,3.06
2019-02-16T00:23:36.960Z,3.12
2019-02-16T00:26:07.211Z,2.90
2019-02-16T00:28:38.536Z,3.08
2019-02-16T00:31:07.717Z,3.22
2019-02-16T00:33:36.925Z,3.01
2019-02-16T00:36:06.106Z,3.17
2019-02-16T00:38:35.192Z,3.15
2019-02-16T00:41:05.381Z,3.33
2019-02-16T00:43:35.420Z,3.50
2019-02-16T00:46:04.650Z,3.36
2019-02-16T00:48:34.384Z,3.44
2019-02-16T00:51:12.887Z,3.29
2019-02-16T00:53:35.525Z,3.11
2019-02-16T00:56:05.539Z,3.01
2019-02-16T00:58:34.701Z,3.01
2019-02-16T01:01:03.913Z,2.83
2019-02-16T01:03:33.802Z,2.88
2019-02-16T01:06:03.731Z,2.88
2019-02-16T01:08:33.726Z,2.93
2019-02-16T01:11:02.935Z,2.96
2019-02-16T01:13:33.161Z,2.95
2019-02-16T01:16:02.283Z,2.97
2019-02-16T01:18:32.369Z,2.86
2019-02-16T01:21:01.581Z,2.75
2019-02-16T01:23:31.149Z,2.78
2019-02-16T01:26:01.630Z,2.86
2019-02-16T01:28:31.532Z,2.97
2019-02-16T01:31:01.051Z,3.14
2019-02-16T01:33:31.150Z,2.98
2019-02-16T01:36:01.281Z,2.79
2019-02-16T01:38:31.144Z,2.71
2019-02-16T01:41:01.250Z,2.45
2019-02-16T01:43:31.551Z,2.35
2019-02-16T01:46:01.224Z,2.35
2019-02-16T01:48:31.171Z,2.23
2019-02-16T01:51:01.186Z,2.34
2019-02-16T01:53:31.108Z,2.45
2019-02-16T01:56:01.078Z,2.43
2019-02-16T01:58:30.938Z,2.61
2019-02-16T02:01:01.427Z,2.58
2019-02-16T02:03:30.978Z,2.50
2019-02-16T02:06:00.334Z,2.61
2019-02-16T02:08:30.342Z,2.61
2019-02-16T02:11:00.197Z,2.36
2019-02-16T02:13:30.181Z,2.18
2019-02-16T02:16:00.319Z,2.18
2019-02-16T02:18:31.039Z,2.43
2019-02-16T02:21:00.781Z,2.41
2019-02-16T02:23:30.849Z,2.54
2019-02-16T02:26:00.080Z,2.71
2019-02-16T02:28:29.198Z,2.56
2019-02-16T02:30:58.365Z,2.45
2019-02-16T02:33:28.563Z,2.38
2019-02-16T02:35:58.703Z,2.59
2019-02-16T02:38:29.236Z,2.65
2019-02-16T02:40:59.523Z,2.51
2019-02-16T02:43:28.902Z,2.53
2019-02-16T02:45:58.289Z,2.31
2019-02-16T02:48:27.448Z,2.21
2019-02-16T02:50:56.854Z,2.56
2019-02-16T02:53:31.278Z,2.38
2019-02-16T02:55:59.002Z,2.11
2019-02-16T02:58:29.447Z,1.90
2019-02-16T03:00:59.637Z,1.71
2019-02-16T03:03:29.082Z,1.72
2019-02-16T03:05:58.589Z,1.55
2019-02-16T03:08:27.900Z,1.80
2019-02-16T03:10:58.088Z,2.07
2019-02-16T03:13:28.844Z,1.98
2019-02-16T03:15:59.032Z,1.87
2019-02-16T03:18:28.283Z,1.68
2019-02-16T03:20:58.337Z,1.72
2019-02-16T03:23:27.477Z,1.72
2019-02-16T03:25:58.963Z,1.95
2019-02-16T03:28:31.999Z,1.96
2019-02-16T03:31:35.169Z,1.93
2019-02-16T03:34:10.320Z,1.94
2019-02-16T03:37:04.949Z,1.94
2019-02-16T03:39:35.052Z,2.16
2019-02-16T03:42:05.249Z,2.22
2019-02-16T03:44:34.385Z,2.27
2019-02-16T03:47:04.953Z,2.01
2019-02-16T03:49:34.883Z,1.65
2019-02-16T03:52:13.256Z,1.62
2019-02-16T03:54:36.089Z,1.46
2019-02-16T03:57:05.929Z,1.45
2019-02-16T03:59:35.139Z,1.34
2019-02-16T04:02:04.600Z,1.27
2019-02-16T04:04:35.093Z,1.14
2019-02-16T04:07:05.072Z,1.20
2019-02-16T04:09:35.001Z,1.12
2019-02-16T04:12:04.167Z,1.18
2019-02-16T04:14:34.218Z,1.26
2019-02-16T04:17:04.213Z,1.43
2019-02-16T04:19:34.370Z,1.57
2019-02-16T04:22:04.791Z,1.38
2019-02-16T04:24:35.887Z,1.49
2019-02-16T04:27:06.279Z,1.35
2019-02-16T04:29:35.698Z,1.60
2019-02-16T04:32:05.677Z,1.62
2019-02-16T04:34:34.922Z,1.59
2019-02-16T04:37:04.127Z,1.59
2019-02-16T04:39:34.616Z,1.53
2019-02-16T04:42:05.596Z,1.38
2019-02-16T04:44:34.885Z,1.26
2019-02-16T04:47:04.089Z,1.19
2019-02-16T04:49:33.285Z,1.04
2019-02-16T04:52:02.483Z,1.26
2019-02-16T04:54:31.671Z,1.50
2019-02-16T04:57:01.845Z,1.75
2019-02-16T04:59:31.111Z,1.51
2019-02-16T05:02:02.541Z,1.56
2019-02-16T05:04:32.432Z,1.68
2019-02-16T05:07:01.573Z,1.68
2019-02-16T05:09:31.662Z,1.58
2019-02-16T05:12:00.840Z,1.33
2019-02-16T05:14:30.197Z,1.04
2019-02-16T05:16:59.429Z,1.01
2019-02-16T05:19:30.120Z,0.99
2019-02-16T05:22:00.554Z,1.07
2019-02-16T05:24:29.792Z,1.04
2019-02-16T05:26:59.028Z,0.89
2019-02-16T05:29:28.234Z,0.85
2019-02-16T05:31:58.442Z,0.89
2019-02-16T05:34:28.595Z,0.88
2019-02-16T05:36:57.844Z,0.87
2019-02-16T05:39:28.498Z,0.81
2019-02-16T05:41:57.905Z,0.66
2019-02-16T05:44:27.199Z,0.81
2019-02-16T05:46:59.262Z,0.92
2019-02-16T05:49:29.045Z,1.03
2019-02-16T05:51:58.264Z,0.89
2019-02-16T05:54:28.705Z,0.83
2019-02-16T05:56:59.553Z,0.77
2019-02-16T05:59:28.747Z,0.92
2019-02-16T06:01:58.945Z,0.70
2019-02-16T06:04:28.612Z,0.74
2019-02-16T06:06:58.207Z,0.92
2019-02-16T06:09:27.465Z,1.00
2019-02-16T06:11:56.550Z,0.94
